sensor_id;sensor_type;location;lat;lon;timestamp;temperature;humidity
25302;DHT22;13243;50.888;4.724;2023-07-20T00:02:37;17.60;99.90
25302;DHT22;13243;50.888;4.724;2023-07-20T00:07:39;17.60;99.90
25302;DHT22;13243;50.888;4.724;2023-07-20T00:12:41;17.60;99.90
25302;DHT22;13243;50.888;4.724;2023-07-20T00:17:49;17.60;99.90
25302;DHT22;13243;50.888;4.724;2023-07-20T00:22:51;17.40;99.90
25302;DHT22;13243;50.888;4.724;2023-07-20T00:27:53;17.40;99.90
25302;DHT22;13243;50.888;4.724;2023-07-20T00:32:55;17.50;99.90
25302;DHT22;13243;50.888;4.724;2023-07-20T00:37:57;17.50;99.90
25302;DHT22;13243;50.888;4.724;2023-07-20T00:42:59;17.40;99.90
25302;DHT22;13243;50.888;4.724;2023-07-20T00:48:04;17.40;99.90
25302;DHT22;13243;50.888;4.724;2023-07-20T00:53:08;17.40;99.90
25302;DHT22;13243;50.888;4.724;2023-07-20T00:58:10;17.30;99.90
25302;DHT22;13243;50.888;4.724;2023-07-20T01:03:13;17.50;99.90
25302;DHT22;13243;50.888;4.724;2023-07-20T01:08:21;17.50;99.90
25302;DHT22;13243;50.888;4.724;2023-07-20T01:13:25;17.50;99.90
25302;DHT22;13243;50.888;4.724;2023-07-20T01:18:28;17.30;99.90
25302;DHT22;13243;50.888;4.724;2023-07-20T01:34:54;17.30;99.90
25302;DHT22;13243;50.888;4.724;2023-07-20T01:39:57;17.20;99.90
25302;DHT22;13243;50.888;4.724;2023-07-20T01:45:00;17.30;99.90
25302;DHT22;13243;50.888;4.724;2023-07-20T01:50:02;17.20;99.90
25302;DHT22;13243;50.888;4.724;2023-07-20T01:55:04;17.20;99.90
25302;DHT22;13243;50.888;4.724;2023-07-20T02:00:07;17.20;99.90
25302;DHT22;13243;50.888;4.724;2023-07-20T02:05:10;17.20;99.90
25302;DHT22;13243;50.888;4.724;2023-07-20T02:10:12;17.20;99.90
25302;DHT22;13243;50.888;4.724;2023-07-20T02:15:14;17.10;99.90
25302;DHT22;13243;50.888;4.724;2023-07-20T02:20:18;17.20;99.90
25302;DHT22;13243;50.888;4.724;2023-07-20T02:25:21;17.10;99.90
25302;DHT22;13243;50.888;4.724;2023-07-20T02:30:23;17.10;99.90
25302;DHT22;13243;50.888;4.724;2023-07-20T02:35:25;16.90;99.90
25302;DHT22;13243;50.888;4.724;2023-07-20T02:40:27;16.90;99.90
25302;DHT22;13243;50.888;4.724;2023-07-20T02:45:29;16.90;99.90
25302;DHT22;13243;50.888;4.724;2023-07-20T02:50:31;16.90;99.90
25302;DHT22;13243;50.888;4.724;2023-07-20T02:55:33;17.00;99.90
25302;DHT22;13243;50.888;4.724;2023-07-20T03:00:35;17.00;99.90
25302;DHT22;13243;50.888;4.724;2023-07-20T03:05:40;17.00;99.90
25302;DHT22;13243;50.888;4.724;2023-07-20T03:10:42;17.00;99.90
25302;DHT22;13243;50.888;4.724;2023-07-20T03:15:44;17.00;99.90
25302;DHT22;13243;50.888;4.724;2023-07-20T03:20:46;16.80;99.90
25302;DHT22;13243;50.888;4.724;2023-07-20T03:25:48;16.80;99.90
25302;DHT22;13243;50.888;4.724;2023-07-20T03:30:56;16.70;99.90
25302;DHT22;13243;50.888;4.724;2023-07-20T03:35:58;16.60;99.90
25302;DHT22;13243;50.888;4.724;2023-07-20T03:41:00;16.70;99.90
25302;DHT22;13243;50.888;4.724;2023-07-20T03:46:02;16.90;99.90
25302;DHT22;13243;50.888;4.724;2023-07-20T03:51:08;16.90;99.90
25302;DHT22;13243;50.888;4.724;2023-07-20T03:56:10;16.90;99.90
25302;DHT22;13243;50.888;4.724;2023-07-20T04:01:12;16.90;99.90
25302;DHT22;13243;50.888;4.724;2023-07-20T04:06:14;16.90;99.90
25302;DHT22;13243;50.888;4.724;2023-07-20T04:11:18;17.00;99.90
25302;DHT22;13243;50.888;4.724;2023-07-20T04:16:20;16.90;99.90
25302;DHT22;13243;50.888;4.724;2023-07-20T04:21:23;17.00;99.90
25302;DHT22;13243;50.888;4.724;2023-07-20T04:26:25;17.00;99.90
25302;DHT22;13243;50.888;4.724;2023-07-20T04:31:27;17.00;99.90
25302;DHT22;13243;50.888;4.724;2023-07-20T04:36:29;17.10;99.90
25302;DHT22;13243;50.888;4.724;2023-07-20T04:41:31;17.20;99.90
25302;DHT22;13243;50.888;4.724;2023-07-20T04:46:36;17.20;99.90
25302;DHT22;13243;50.888;4.724;2023-07-20T04:51:38;17.20;99.90
25302;DHT22;13243;50.888;4.724;2023-07-20T04:56:40;17.30;99.90
25302;DHT22;13243;50.888;4.724;2023-07-20T05:01:42;17.30;99.90
25302;DHT22;13243;50.888;4.724;2023-07-20T05:06:44;17.30;99.90
25302;DHT22;13243;50.888;4.724;2023-07-20T05:11:48;17.40;99.90
25302;DHT22;13243;50.888;4.724;2023-07-20T05:16:50;17.30;99.90
25302;DHT22;13243;50.888;4.724;2023-07-20T05:21:52;17.40;99.90
25302;DHT22;13243;50.888;4.724;2023-07-20T05:26:54;17.40;99.90
25302;DHT22;13243;50.888;4.724;2023-07-20T05:31:56;17.50;99.90
25302;DHT22;13243;50.888;4.724;2023-07-20T05:36:58;17.50;99.90
25302;DHT22;13243;50.888;4.724;2023-07-20T05:42:00;17.60;99.90
25302;DHT22;13243;50.888;4.724;2023-07-20T05:47:01;17.60;99.90
25302;DHT22;13243;50.888;4.724;2023-07-20T05:52:05;17.60;99.90
25302;DHT22;13243;50.888;4.724;2023-07-20T05:57:07;17.70;99.90
25302;DHT22;13243;50.888;4.724;2023-07-20T06:02:10;17.70;99.90
25302;DHT22;13243;50.888;4.724;2023-07-20T06:07:12;17.80;99.90
25302;DHT22;13243;50.888;4.724;2023-07-20T06:12:14;17.80;99.90
25302;DHT22;13243;50.888;4.724;2023-07-20T06:17:16;17.90;99.90
25302;DHT22;13243;50.888;4.724;2023-07-20T06:22:18;18.00;99.90
25302;DHT22;13243;50.888;4.724;2023-07-20T06:27:20;18.00;99.90
25302;DHT22;13243;50.888;4.724;2023-07-20T06:32:22;18.00;99.90
25302;DHT22;13243;50.888;4.724;2023-07-20T06:37:24;17.90;99.90
25302;DHT22;13243;50.888;4.724;2023-07-20T06:42:26;18.00;99.90
25302;DHT22;13243;50.888;4.724;2023-07-20T06:47:48;18.10;99.90
25302;DHT22;13243;50.888;4.724;2023-07-20T06:52:50;18.10;99.90
25302;DHT22;13243;50.888;4.724;2023-07-20T06:57:52;18.20;99.90
25302;DHT22;13243;50.888;4.724;2023-07-20T07:02:59;18.30;99.90
25302;DHT22;13243;50.888;4.724;2023-07-20T07:08:01;18.30;99.90
25302;DHT22;13243;50.888;4.724;2023-07-20T07:13:03;18.20;99.90
25302;DHT22;13243;50.888;4.724;2023-07-20T07:18:06;18.20;99.90
25302;DHT22;13243;50.888;4.724;2023-07-20T07:23:08;18.30;99.90
25302;DHT22;13243;50.888;4.724;2023-07-20T07:28:10;18.20;99.90
25302;DHT22;13243;50.888;4.724;2023-07-20T07:33:12;18.30;99.90
25302;DHT22;13243;50.888;4.724;2023-07-20T07:38:14;18.40;99.90
25302;DHT22;13243;50.888;4.724;2023-07-20T07:43:36;18.80;99.90
25302;DHT22;13243;50.888;4.724;2023-07-20T07:48:38;19.20;99.90
25302;DHT22;13243;50.888;4.724;2023-07-20T07:53:40;19.00;99.90
25302;DHT22;13243;50.888;4.724;2023-07-20T07:58:42;19.20;99.90
25302;DHT22;13243;50.888;4.724;2023-07-20T08:03:44;19.40;99.90
25302;DHT22;13243;50.888;4.724;2023-07-20T08:08:48;19.30;99.90
25302;DHT22;13243;50.888;4.724;2023-07-20T08:13:50;19.30;99.90
25302;DHT22;13243;50.888;4.724;2023-07-20T08:18:52;19.10;99.90
25302;DHT22;13243;50.888;4.724;2023-07-20T08:23:54;19.00;99.90
25302;DHT22;13243;50.888;4.724;2023-07-20T08:28:56;19.50;99.90
25302;DHT22;13243;50.888;4.724;2023-07-20T08:33:58;19.30;99.90
25302;DHT22;13243;50.888;4.724;2023-07-20T08:39:00;19.50;99.90
25302;DHT22;13243;50.888;4.724;2023-07-20T08:44:02;19.60;99.90
25302;DHT22;13243;50.888;4.724;2023-07-20T08:49:05;19.90;99.90
25302;DHT22;13243;50.888;4.724;2023-07-20T08:54:09;20.20;99.90
25302;DHT22;13243;50.888;4.724;2023-07-20T08:59:14;20.40;99.90
25302;DHT22;13243;50.888;4.724;2023-07-20T09:04:18;20.70;99.90
25302;DHT22;13243;50.888;4.724;2023-07-20T09:09:20;20.90;99.90
25302;DHT22;13243;50.888;4.724;2023-07-20T09:14:23;20.30;99.90
25302;DHT22;13243;50.888;4.724;2023-07-20T09:19:26;20.00;99.90
25302;DHT22;13243;50.888;4.724;2023-07-20T09:24:28;20.20;99.90
25302;DHT22;13243;50.888;4.724;2023-07-20T09:29:31;20.50;99.90
25302;DHT22;13243;50.888;4.724;2023-07-20T09:34:33;21.00;99.90
25302;DHT22;13243;50.888;4.724;2023-07-20T09:39:44;21.10;99.90
25302;DHT22;13243;50.888;4.724;2023-07-20T09:44:50;21.00;99.90
25302;DHT22;13243;50.888;4.724;2023-07-20T09:49:59;20.90;99.90
25302;DHT22;13243;50.888;4.724;2023-07-20T09:55:08;20.70;99.90
25302;DHT22;13243;50.888;4.724;2023-07-20T10:00:11;20.50;99.90
25302;DHT22;13243;50.888;4.724;2023-07-20T10:05:17;20.70;99.90
25302;DHT22;13243;50.888;4.724;2023-07-20T10:10:20;20.90;99.90
25302;DHT22;13243;50.888;4.724;2023-07-20T10:20:32;21.60;99.90
25302;DHT22;13243;50.888;4.724;2023-07-20T10:25:35;21.60;99.90
25302;DHT22;13243;50.888;4.724;2023-07-20T10:30:40;21.90;99.90
25302;DHT22;13243;50.888;4.724;2023-07-20T10:36:02;22.40;99.90
25302;DHT22;13243;50.888;4.724;2023-07-20T10:41:19;23.00;99.90
25302;DHT22;13243;50.888;4.724;2023-07-20T10:51:43;22.20;99.90
25302;DHT22;13243;50.888;4.724;2023-07-20T10:56:49;23.00;99.90
25302;DHT22;13243;50.888;4.724;2023-07-20T11:01:57;23.00;99.90
25302;DHT22;13243;50.888;4.724;2023-07-20T11:07:03;22.60;99.90
25302;DHT22;13243;50.888;4.724;2023-07-20T11:12:12;22.70;99.90
25302;DHT22;13243;50.888;4.724;2023-07-20T11:17:15;22.90;99.90
25302;DHT22;13243;50.888;4.724;2023-07-20T11:22:22;23.20;99.90
25302;DHT22;13243;50.888;4.724;2023-07-20T11:27:24;22.60;99.90
25302;DHT22;13243;50.888;4.724;2023-07-20T11:32:26;22.50;99.90
25302;DHT22;13243;50.888;4.724;2023-07-20T11:37:28;22.00;99.90
25302;DHT22;13243;50.888;4.724;2023-07-20T11:42:30;21.50;99.90
25302;DHT22;13243;50.888;4.724;2023-07-20T11:47:40;21.70;99.90
25302;DHT22;13243;50.888;4.724;2023-07-20T11:52:44;21.70;99.90
25302;DHT22;13243;50.888;4.724;2023-07-20T11:58:05;21.70;99.90
25302;DHT22;13243;50.888;4.724;2023-07-20T12:03:09;21.80;99.90
25302;DHT22;13243;50.888;4.724;2023-07-20T12:08:13;21.90;99.90
25302;DHT22;13243;50.888;4.724;2023-07-20T12:13:16;22.10;99.90
25302;DHT22;13243;50.888;4.724;2023-07-20T12:18:17;22.90;99.90
25302;DHT22;13243;50.888;4.724;2023-07-20T12:23:20;22.40;99.90
25302;DHT22;13243;50.888;4.724;2023-07-20T12:28:21;22.50;99.90
25302;DHT22;13243;50.888;4.724;2023-07-20T12:33:24;22.60;99.90
25302;DHT22;13243;50.888;4.724;2023-07-20T12:38:26;22.40;99.90
25302;DHT22;13243;50.888;4.724;2023-07-20T12:43:29;22.80;99.90
25302;DHT22;13243;50.888;4.724;2023-07-20T12:48:31;22.90;99.90
25302;DHT22;13243;50.888;4.724;2023-07-20T12:53:33;23.30;99.90
25302;DHT22;13243;50.888;4.724;2023-07-20T12:58:36;24.30;99.90
25302;DHT22;13243;50.888;4.724;2023-07-20T13:03:38;24.70;99.90
25302;DHT22;13243;50.888;4.724;2023-07-20T13:09:00;24.40;99.90
25302;DHT22;13243;50.888;4.724;2023-07-20T13:14:02;24.10;99.90
25302;DHT22;13243;50.888;4.724;2023-07-20T13:19:04;25.10;99.90
25302;DHT22;13243;50.888;4.724;2023-07-20T13:24:06;24.80;99.90
25302;DHT22;13243;50.888;4.724;2023-07-20T13:29:08;24.60;99.90
25302;DHT22;13243;50.888;4.724;2023-07-20T13:34:10;24.40;99.90
25302;DHT22;13243;50.888;4.724;2023-07-20T13:39:12;24.10;99.90
25302;DHT22;13243;50.888;4.724;2023-07-20T13:44:14;23.20;99.90
25302;DHT22;13243;50.888;4.724;2023-07-20T13:49:18;23.20;99.90
25302;DHT22;13243;50.888;4.724;2023-07-20T13:54:24;23.30;99.90
25302;DHT22;13243;50.888;4.724;2023-07-20T13:59:28;23.20;99.90
25302;DHT22;13243;50.888;4.724;2023-07-20T14:04:30;23.00;99.90
25302;DHT22;13243;50.888;4.724;2023-07-20T14:09:32;23.00;99.90
25302;DHT22;13243;50.888;4.724;2023-07-20T14:14:34;23.00;99.90
25302;DHT22;13243;50.888;4.724;2023-07-20T14:19:37;23.00;99.90
25302;DHT22;13243;50.888;4.724;2023-07-20T14:24:40;23.10;99.90
25302;DHT22;13243;50.888;4.724;2023-07-20T14:29:42;23.10;99.90
25302;DHT22;13243;50.888;4.724;2023-07-20T14:34:44;23.10;99.90
25302;DHT22;13243;50.888;4.724;2023-07-20T14:39:48;23.30;99.90
25302;DHT22;13243;50.888;4.724;2023-07-20T14:44:50;23.50;99.90
25302;DHT22;13243;50.888;4.724;2023-07-20T14:49:53;23.30;99.90
25302;DHT22;13243;50.888;4.724;2023-07-20T14:54:55;23.20;99.90
25302;DHT22;13243;50.888;4.724;2023-07-20T14:59:57;23.40;99.90
25302;DHT22;13243;50.888;4.724;2023-07-20T15:04:59;23.50;99.90
25302;DHT22;13243;50.888;4.724;2023-07-20T15:10:02;24.80;99.90
25302;DHT22;13243;50.888;4.724;2023-07-20T15:15:14;25.00;99.90
25302;DHT22;13243;50.888;4.724;2023-07-20T15:20:16;26.50;99.90
25302;DHT22;13243;50.888;4.724;2023-07-20T15:25:18;27.70;99.90
25302;DHT22;13243;50.888;4.724;2023-07-20T15:30:20;27.00;99.90
25302;DHT22;13243;50.888;4.724;2023-07-20T15:35:26;26.80;99.90
25302;DHT22;13243;50.888;4.724;2023-07-20T15:40:28;26.30;99.90
25302;DHT22;13243;50.888;4.724;2023-07-20T15:45:30;25.60;99.90
25302;DHT22;13243;50.888;4.724;2023-07-20T15:50:32;25.60;99.90
25302;DHT22;13243;50.888;4.724;2023-07-20T15:55:34;25.40;99.90
25302;DHT22;13243;50.888;4.724;2023-07-20T16:00:36;24.60;99.90
25302;DHT22;13243;50.888;4.724;2023-07-20T16:05:39;24.10;99.90
25302;DHT22;13243;50.888;4.724;2023-07-20T16:10:41;23.90;99.90
25302;DHT22;13243;50.888;4.724;2023-07-20T16:15:43;23.50;99.90
25302;DHT22;13243;50.888;4.724;2023-07-20T16:20:48;23.30;99.90
25302;DHT22;13243;50.888;4.724;2023-07-20T16:25:50;23.10;99.90
25302;DHT22;13243;50.888;4.724;2023-07-20T16:30:53;22.90;99.90
25302;DHT22;13243;50.888;4.724;2023-07-20T16:35:55;22.40;99.90
25302;DHT22;13243;50.888;4.724;2023-07-20T16:40:59;21.10;99.90
25302;DHT22;13243;50.888;4.724;2023-07-20T16:46:06;20.40;99.90
25302;DHT22;13243;50.888;4.724;2023-07-20T16:51:12;20.00;99.90
25302;DHT22;13243;50.888;4.724;2023-07-20T16:56:14;19.60;99.90
25302;DHT22;13243;50.888;4.724;2023-07-20T17:01:16;19.50;99.90
25302;DHT22;13243;50.888;4.724;2023-07-20T17:06:19;19.20;99.90
25302;DHT22;13243;50.888;4.724;2023-07-20T17:11:21;19.20;99.90
25302;DHT22;13243;50.888;4.724;2023-07-20T17:16:23;18.90;99.90
25302;DHT22;13243;50.888;4.724;2023-07-20T17:21:25;18.90;99.90
25302;DHT22;13243;50.888;4.724;2023-07-20T17:26:28;18.90;99.90
25302;DHT22;13243;50.888;4.724;2023-07-20T17:31:33;19.00;99.90
25302;DHT22;13243;50.888;4.724;2023-07-20T17:36:35;18.80;99.90
25302;DHT22;13243;50.888;4.724;2023-07-20T17:41:40;18.90;99.90
25302;DHT22;13243;50.888;4.724;2023-07-20T17:46:42;18.90;99.90
25302;DHT22;13243;50.888;4.724;2023-07-20T17:51:47;18.80;99.90
25302;DHT22;13243;50.888;4.724;2023-07-20T17:56:49;18.80;99.90
25302;DHT22;13243;50.888;4.724;2023-07-20T18:01:51;18.80;99.90
25302;DHT22;13243;50.888;4.724;2023-07-20T18:06:53;18.90;99.90
25302;DHT22;13243;50.888;4.724;2023-07-20T18:11:55;18.80;99.90
25302;DHT22;13243;50.888;4.724;2023-07-20T18:16:57;18.90;99.90
25302;DHT22;13243;50.888;4.724;2023-07-20T18:21:59;18.90;99.90
25302;DHT22;13243;50.888;4.724;2023-07-20T18:27:00;18.90;99.90
25302;DHT22;13243;50.888;4.724;2023-07-20T18:32:02;18.90;99.90
25302;DHT22;13243;50.888;4.724;2023-07-20T18:37:05;19.00;99.90
25302;DHT22;13243;50.888;4.724;2023-07-20T18:42:07;19.10;99.90
25302;DHT22;13243;50.888;4.724;2023-07-20T18:47:09;19.00;99.90
25302;DHT22;13243;50.888;4.724;2023-07-20T18:52:11;18.90;99.90
25302;DHT22;13243;50.888;4.724;2023-07-20T18:57:13;18.90;99.90
25302;DHT22;13243;50.888;4.724;2023-07-20T19:02:15;18.80;99.90
25302;DHT22;13243;50.888;4.724;2023-07-20T19:07:18;18.80;99.90
25302;DHT22;13243;50.888;4.724;2023-07-20T19:12:20;18.60;99.90
25302;DHT22;13243;50.888;4.724;2023-07-20T19:17:22;18.80;99.90
25302;DHT22;13243;50.888;4.724;2023-07-20T19:22:26;18.50;99.90
25302;DHT22;13243;50.888;4.724;2023-07-20T19:27:28;18.50;99.90
25302;DHT22;13243;50.888;4.724;2023-07-20T19:32:30;18.40;99.90
25302;DHT22;13243;50.888;4.724;2023-07-20T19:37:32;18.40;99.90
25302;DHT22;13243;50.888;4.724;2023-07-20T19:42:34;18.20;99.90
25302;DHT22;13243;50.888;4.724;2023-07-20T19:47:36;18.20;99.90
25302;DHT22;13243;50.888;4.724;2023-07-20T19:52:38;18.20;99.90
25302;DHT22;13243;50.888;4.724;2023-07-20T19:58:03;18.20;99.90
25302;DHT22;13243;50.888;4.724;2023-07-20T20:03:06;18.20;99.90
25302;DHT22;13243;50.888;4.724;2023-07-20T20:08:11;18.10;99.90
25302;DHT22;13243;50.888;4.724;2023-07-20T20:13:13;18.00;99.90
25302;DHT22;13243;50.888;4.724;2023-07-20T20:18:15;17.90;99.90
25302;DHT22;13243;50.888;4.724;2023-07-20T20:23:19;17.70;99.90
25302;DHT22;13243;50.888;4.724;2023-07-20T20:28:21;17.70;99.90
25302;DHT22;13243;50.888;4.724;2023-07-20T20:33:24;17.70;99.90
25302;DHT22;13243;50.888;4.724;2023-07-20T20:38:27;17.80;99.90
25302;DHT22;13243;50.888;4.724;2023-07-20T20:43:29;17.60;99.90
25302;DHT22;13243;50.888;4.724;2023-07-20T20:48:32;17.60;99.90
25302;DHT22;13243;50.888;4.724;2023-07-20T20:53:37;17.50;99.90
25302;DHT22;13243;50.888;4.724;2023-07-20T20:58:41;17.40;99.90
25302;DHT22;13243;50.888;4.724;2023-07-20T21:03:44;17.20;99.90
25302;DHT22;13243;50.888;4.724;2023-07-20T21:08:46;17.20;99.90
25302;DHT22;13243;50.888;4.724;2023-07-20T21:13:48;17.20;99.90
25302;DHT22;13243;50.888;4.724;2023-07-20T21:18:51;17.10;99.90
25302;DHT22;13243;50.888;4.724;2023-07-20T21:23:53;17.10;99.90
25302;DHT22;13243;50.888;4.724;2023-07-20T21:28:55;17.10;99.90
25302;DHT22;13243;50.888;4.724;2023-07-20T21:33:57;17.00;99.90
25302;DHT22;13243;50.888;4.724;2023-07-20T21:38:58;17.00;99.90
25302;DHT22;13243;50.888;4.724;2023-07-20T21:44:01;17.00;99.90
25302;DHT22;13243;50.888;4.724;2023-07-20T21:49:03;16.90;99.90
25302;DHT22;13243;50.888;4.724;2023-07-20T21:54:05;16.90;99.90
25302;DHT22;13243;50.888;4.724;2023-07-20T21:59:07;16.80;99.90
25302;DHT22;13243;50.888;4.724;2023-07-20T22:04:09;16.90;99.90
25302;DHT22;13243;50.888;4.724;2023-07-20T22:09:14;16.80;99.90
25302;DHT22;13243;50.888;4.724;2023-07-20T22:14:16;16.80;99.90
25302;DHT22;13243;50.888;4.724;2023-07-20T22:19:18;16.80;99.90
25302;DHT22;13243;50.888;4.724;2023-07-20T22:24:21;16.80;99.90
25302;DHT22;13243;50.888;4.724;2023-07-20T22:29:23;16.70;99.90
25302;DHT22;13243;50.888;4.724;2023-07-20T22:34:28;16.70;99.90
25302;DHT22;13243;50.888;4.724;2023-07-20T22:39:32;16.60;99.90
25302;DHT22;13243;50.888;4.724;2023-07-20T22:44:34;16.60;99.90
25302;DHT22;13243;50.888;4.724;2023-07-20T22:49:36;16.60;99.90
25302;DHT22;13243;50.888;4.724;2023-07-20T22:54:38;16.50;99.90
25302;DHT22;13243;50.888;4.724;2023-07-20T22:59:40;16.60;99.90
25302;DHT22;13243;50.888;4.724;2023-07-20T23:04:43;16.50;99.90
25302;DHT22;13243;50.888;4.724;2023-07-20T23:09:46;16.50;99.90
25302;DHT22;13243;50.888;4.724;2023-07-20T23:14:48;16.40;99.90
25302;DHT22;13243;50.888;4.724;2023-07-20T23:19:49;16.30;99.90
25302;DHT22;13243;50.888;4.724;2023-07-20T23:24:52;16.40;99.90
25302;DHT22;13243;50.888;4.724;2023-07-20T23:29:53;16.40;99.90
25302;DHT22;13243;50.888;4.724;2023-07-20T23:34:55;16.40;99.90
25302;DHT22;13243;50.888;4.724;2023-07-20T23:39:57;16.20;99.90
25302;DHT22;13243;50.888;4.724;2023-07-20T23:45:00;16.30;99.90
25302;DHT22;13243;50.888;4.724;2023-07-20T23:50:03;16.40;99.90
25302;DHT22;13243;50.888;4.724;2023-07-20T23:55:06;16.30;99.90
